Time;durP1;ratioP1;P1;durP2;ratioP2;P2;SDS_P1;SDS_P2;PMS_P1;PMS_P2;Temp;Humidity;BMP_temperature;BMP_pressure;BME280_temperature;BME280_humidity;BME280_pressure;Samples;Min_cycle;Max_cycle;Signal;HPM_P1;HPM_P2
2022/03/23 00:01:12;;;;;;;3.83;2.90;;;15.00;46.20;;;;;;5122149;28;20039;-66
2022/03/23 00:03:38;;;;;;;3.33;2.83;;;15.00;46.20;;;;;;5122174;28;20028;-67
2022/03/23 00:06:04;;;;;;;3.92;2.78;;;15.00;46.20;;;;;;5122021;28;20335;-66
2022/03/23 00:08:30;;;;;;;3.33;2.60;;;15.00;46.20;;;;;;5122013;28;20057;-67
2022/03/23 00:10:56;;;;;;;3.25;2.70;;;15.00;46.30;;;;;;5121893;28;20023;-69
2022/03/23 00:13:22;;;;;;;4.00;2.95;;;15.00;46.20;;;;;;5121854;28;20031;-69
2022/03/23 00:15:48;;;;;;;3.03;2.67;;;15.00;46.30;;;;;;5121854;28;20020;-66
2022/03/23 00:18:15;;;;;;;3.10;2.67;;;14.90;46.20;;;;;;5121804;28;20035;-67
2022/03/23 00:20:41;;;;;;;3.42;2.50;;;15.00;46.30;;;;;;5121814;28;20073;-66
2022/03/23 00:23:09;;;;;;;3.13;2.80;;;15.00;46.20;;;;;;5120489;28;20072;-67
2022/03/23 00:25:36;;;;;;;2.75;2.33;;;15.00;46.20;;;;;;5121672;28;20118;-66
2022/03/23 00:28:02;;;;;;;3.70;2.97;;;15.00;46.20;;;;;;5121661;28;20024;-67
2022/03/23 00:30:28;;;;;;;3.45;2.70;;;15.00;46.30;;;;;;5120241;28;20020;-68
2022/03/23 00:32:53;;;;;;;3.03;2.70;;;15.00;46.30;;;;;;5121455;28;20268;-67
2022/03/23 00:35:20;;;;;;;3.40;2.78;;;15.00;46.20;;;;;;5121402;28;20028;-66
2022/03/23 00:37:46;;;;;;;3.53;2.90;;;14.90;46.20;;;;;;5121436;28;20038;-68
2022/03/23 00:40:12;;;;;;;4.45;2.80;;;15.00;46.20;;;;;;5120890;28;20295;-66
2022/03/23 00:42:38;;;;;;;2.47;2.28;;;14.90;46.20;;;;;;5121357;28;20096;-67
2022/03/23 00:45:04;;;;;;;2.90;2.60;;;14.90;46.20;;;;;;5121196;28;20027;-66
2022/03/23 00:47:30;;;;;;;3.22;2.67;;;14.90;46.20;;;;;;5121004;28;20055;-67
2022/03/23 00:49:56;;;;;;;3.47;2.97;;;14.90;46.20;;;;;;5121054;28;20047;-67
2022/03/23 00:52:21;;;;;;;2.97;2.63;;;14.90;46.30;;;;;;5119726;28;20020;-67
2022/03/23 00:54:47;;;;;;;2.85;2.45;;;14.90;46.30;;;;;;5121040;28;20023;-68
2022/03/23 00:57:13;;;;;;;2.95;2.33;;;14.90;46.20;;;;;;5120971;28;20084;-68
2022/03/23 00:59:39;;;;;;;3.90;2.95;;;14.90;46.20;;;;;;5121025;28;20051;-67
2022/03/23 01:02:05;;;;;;;2.95;2.42;;;14.90;46.20;;;;;;5120920;28;20035;-67
2022/03/23 01:04:32;;;;;;;2.28;2.03;;;14.90;46.30;;;;;;5120876;28;20028;-67
2022/03/23 01:06:58;;;;;;;2.70;2.28;;;14.90;46.20;;;;;;5120824;28;20023;-67
2022/03/23 01:09:25;;;;;;;3.03;2.72;;;14.90;46.20;;;;;;5120665;28;20019;-67
2022/03/23 01:11:51;;;;;;;3.33;2.53;;;14.90;46.20;;;;;;5120716;28;20299;-69
2022/03/23 01:14:19;;;;;;;3.88;2.72;;;14.90;46.20;;;;;;5120725;28;20047;-67
2022/03/23 01:16:45;;;;;;;4.00;2.73;;;14.90;46.30;;;;;;5120658;28;20226;-67
2022/03/23 01:19:12;;;;;;;4.43;2.90;;;14.90;46.20;;;;;;5120626;28;20039;-68
2022/03/23 01:21:38;;;;;;;3.05;2.65;;;14.90;46.20;;;;;;5120523;28;20080;-69
2022/03/23 01:24:06;;;;;;;4.28;2.63;;;14.90;46.20;;;;;;5120484;28;20327;-67
2022/03/23 01:26:32;;;;;;;2.20;1.98;;;14.80;46.10;;;;;;5120471;28;20019;-67
2022/03/23 01:28:58;;;;;;;2.50;2.30;;;14.80;46.20;;;;;;5120344;28;20032;-67
2022/03/23 01:31:24;;;;;;;3.13;2.47;;;14.90;46.20;;;;;;5120393;28;20023;-67
2022/03/23 01:33:50;;;;;;;2.42;2.22;;;14.80;46.20;;;;;;5120409;28;20354;-66
2022/03/23 01:36:16;;;;;;;4.07;2.95;;;14.80;46.20;;;;;;5120296;28;20026;-67
2022/03/23 01:38:41;;;;;;;2.90;2.38;;;14.80;46.20;;;;;;5120250;28;20034;-66
2022/03/23 01:41:07;;;;;;;3.75;2.80;;;14.80;46.20;;;;;;5120190;28;20023;-68
2022/03/23 01:43:33;;;;;;;3.70;2.65;;;14.80;46.20;;;;;;5120202;28;20047;-67
2022/03/23 01:46:00;;;;;;;3.00;2.45;;;14.80;46.20;;;;;;5120049;28;20030;-67
2022/03/23 01:48:25;;;;;;;3.15;2.53;;;14.80;46.30;;;;;;5118856;28;20084;-67
2022/03/23 01:50:51;;;;;;;2.72;2.42;;;14.80;46.30;;;;;;5119238;28;20034;-66
2022/03/23 01:53:17;;;;;;;2.63;2.33;;;14.80;46.20;;;;;;5120079;28;20208;-67
2022/03/23 01:55:44;;;;;;;2.67;2.47;;;14.80;46.20;;;;;;5119963;28;20027;-66
2022/03/23 01:58:10;;;;;;;3.55;2.83;;;14.80;46.90;;;;;;5120063;28;20031;-66
2022/03/23 02:00:36;;;;;;;2.78;2.25;;;14.80;46.20;;;;;;5120005;28;20016;-67
2022/03/23 02:03:03;;;;;;;3.70;2.63;;;14.80;46.20;;;;;;5119965;28;20023;-67
2022/03/23 02:05:28;;;;;;;3.45;2.95;;;14.80;46.30;;;;;;5119925;28;20068;-66
2022/03/23 02:07:57;;;;;;;4.43;3.10;;;14.80;46.20;;;;;;5119882;28;20027;-66
2022/03/23 02:10:23;;;;;;;3.47;2.60;;;14.70;46.20;;;;;;5119873;28;20020;-67
2022/03/23 02:12:48;;;;;;;3.60;2.45;;;14.70;46.30;;;;;;5119880;28;20087;-67
2022/03/23 02:15:17;;;;;;;3.17;2.53;;;14.70;46.20;;;;;;5119809;28;20528;-66
2022/03/23 02:17:44;;;;;;;3.03;2.35;;;14.80;46.20;;;;;;5119778;28;20022;-67
2022/03/23 02:20:11;;;;;;;2.78;2.50;;;14.80;46.20;;;;;;5119837;28;20047;-66
2022/03/23 02:22:37;;;;;;;6.47;3.15;;;14.70;46.10;;;;;;5119745;28;20038;-67
2022/03/23 02:25:06;;;;;;;3.08;2.50;;;14.80;46.30;;;;;;5119708;28;20024;-68
2022/03/23 02:27:34;;;;;;;3.15;2.50;;;14.70;46.20;;;;;;5118439;28;20028;-68
2022/03/23 02:30:00;;;;;;;2.90;2.37;;;14.70;46.10;;;;;;5119737;28;20024;-67
2022/03/23 02:32:25;;;;;;;4.00;2.80;;;14.80;46.20;;;;;;5119652;28;20235;-68
2022/03/23 02:34:51;;;;;;;3.03;2.45;;;14.70;46.20;;;;;;5119641;28;20040;-68
2022/03/23 02:37:17;;;;;;;3.72;2.50;;;14.70;46.20;;;;;;5119601;28;20031;-67
2022/03/23 02:39:43;;;;;;;2.97;2.58;;;14.70;46.20;;;;;;5119579;28;20043;-68
2022/03/23 02:42:08;;;;;;;3.53;2.45;;;14.70;46.30;;;;;;5119523;28;20050;-67
2022/03/23 02:44:34;;;;;;;2.97;2.42;;;14.70;46.30;;;;;;5119473;28;20240;-67
2022/03/23 02:47:01;;;;;;;3.63;2.70;;;14.70;46.20;;;;;;5119348;28;20055;-66
2022/03/23 02:49:27;;;;;;;2.40;2.08;;;14.70;46.20;;;;;;5118096;28;20263;-67
2022/03/23 02:51:53;;;;;;;3.65;2.60;;;14.70;46.20;;;;;;5119333;28;20109;-67
2022/03/23 03:03:27;;;;;;;2.75;2.47;;;14.70;46.20;;;;;;5122919;28;20351;-67
2022/03/23 03:05:53;;;;;;;3.35;2.95;;;14.70;46.20;;;;;;5121803;28;20027;-66
2022/03/23 03:11:03;;;;;;;2.92;2.55;;;14.70;46.30;;;;;;5122562;28;20419;-65
2022/03/23 03:13:30;;;;;;;4.05;2.92;;;14.70;46.20;;;;;;5122990;28;20027;-66
2022/03/23 03:16:02;;;;;;;3.40;2.72;;;14.60;46.20;;;;;;5122936;28;20023;-67
2022/03/23 03:18:32;;;;;;;3.15;2.30;;;14.70;46.20;;;;;;5122866;28;20019;-67
2022/03/23 03:20:58;;;;;;;2.78;2.33;;;14.60;46.20;;;;;;5122809;28;20015;-67
2022/03/23 03:23:25;;;;;;;3.08;2.40;;;14.70;46.20;;;;;;5122746;28;20088;-66
2022/03/23 03:25:51;;;;;;;4.13;2.53;;;14.60;46.10;;;;;;5122677;28;20015;-66
2022/03/23 03:28:17;;;;;;;2.78;2.33;;;14.60;46.20;;;;;;5122721;28;20072;-67
2022/03/23 03:30:42;;;;;;;2.72;2.28;;;14.60;46.20;;;;;;5122543;28;20088;-66
2022/03/23 03:33:08;;;;;;;3.78;2.97;;;14.60;46.20;;;;;;5122609;28;20403;-66
2022/03/23 03:35:34;;;;;;;3.72;2.55;;;14.60;46.20;;;;;;5122456;28;20542;-67
2022/03/23 03:37:59;;;;;;;2.83;2.50;;;14.60;46.20;;;;;;5121276;28;20091;-66
2022/03/23 03:40:25;;;;;;;2.67;2.05;;;14.60;46.30;;;;;;5122400;28;20083;-67
2022/03/23 03:42:51;;;;;;;2.95;2.60;;;14.60;46.30;;;;;;5122395;28;20032;-66
2022/03/23 03:45:16;;;;;;;3.40;2.35;;;14.50;46.30;;;;;;5122304;28;20346;-67
2022/03/23 03:47:42;;;;;;;3.05;2.58;;;14.50;46.30;;;;;;5122096;28;20039;-66
2022/03/23 03:50:08;;;;;;;4.15;3.22;;;14.50;46.30;;;;;;5122206;28;20032;-67
2022/03/23 03:52:34;;;;;;;3.55;2.45;;;14.50;46.40;;;;;;5122170;28;20098;-67
2022/03/23 03:55:00;;;;;;;2.92;2.40;;;14.50;46.30;;;;;;5121150;28;20016;-66
2022/03/23 03:57:25;;;;;;;3.15;2.80;;;14.50;46.30;;;;;;5122087;28;20019;-68
2022/03/23 03:59:51;;;;;;;3.63;2.75;;;14.50;46.50;;;;;;5122037;28;20088;-67
2022/03/23 04:02:18;;;;;;;2.97;2.45;;;14.50;46.30;;;;;;5122044;28;20035;-67
2022/03/23 04:04:44;;;;;;;3.55;2.67;;;14.50;46.30;;;;;;5121976;28;20076;-66
2022/03/23 04:07:10;;;;;;;4.13;2.90;;;14.50;46.40;;;;;;5121951;28;20287;-67
2022/03/23 04:09:35;;;;;;;3.00;2.70;;;14.50;46.30;;;;;;5121867;28;20092;-67
2022/03/23 04:12:01;;;;;;;3.65;2.75;;;14.50;46.30;;;;;;5121907;28;20027;-67
2022/03/23 04:14:27;;;;;;;2.60;2.40;;;14.50;46.30;;;;;;5120884;28;20019;-67
2022/03/23 04:16:53;;;;;;;3.13;2.50;;;14.50;46.30;;;;;;5121656;28;20088;-68
2022/03/23 04:19:18;;;;;;;3.47;2.67;;;14.50;46.40;;;;;;5121721;28;20028;-66
2022/03/23 04:21:45;;;;;;;2.95;2.65;;;14.50;46.30;;;;;;5121527;28;20027;-66
2022/03/23 04:24:11;;;;;;;3.70;2.85;;;14.50;46.20;;;;;;5120282;28;20020;-66
2022/03/23 04:26:37;;;;;;;3.03;2.50;;;14.50;46.20;;;;;;5121543;28;20140;-68
2022/03/23 04:29:02;;;;;;;3.65;2.67;;;14.40;46.20;;;;;;5121426;27;20016;-66
2022/03/23 04:31:28;;;;;;;3.05;2.40;;;14.50;46.30;;;;;;5121450;28;20028;-66
2022/03/23 04:33:54;;;;;;;2.90;2.58;;;14.40;46.20;;;;;;5121364;28;20027;-65
2022/03/23 04:36:20;;;;;;;2.92;2.60;;;14.40;46.20;;;;;;5121361;28;20020;-66
2022/03/23 04:38:46;;;;;;;3.08;2.55;;;14.40;46.20;;;;;;5121300;28;20012;-67
2022/03/23 04:41:12;;;;;;;2.33;2.13;;;14.40;46.20;;;;;;5121259;28;20034;-66
2022/03/23 04:43:38;;;;;;;3.47;2.80;;;14.40;46.20;;;;;;5121197;28;20039;-67
2022/03/23 04:46:05;;;;;;;3.33;2.45;;;14.40;46.20;;;;;;5119641;28;20021;-67
2022/03/23 04:48:31;;;;;;;3.83;2.80;;;14.40;46.20;;;;;;5121188;28;20083;-67
2022/03/23 04:50:57;;;;;;;4.00;2.88;;;14.40;46.10;;;;;;5120956;28;20020;-67
2022/03/23 04:53:23;;;;;;;4.53;2.92;;;14.40;46.20;;;;;;5121032;28;20078;-66
2022/03/23 04:55:49;;;;;;;2.95;2.50;;;14.40;46.20;;;;;;5121034;28;20096;-68
2022/03/23 04:58:15;;;;;;;2.90;2.55;;;14.40;46.10;;;;;;5119553;28;20220;-66
2022/03/23 05:00:41;;;;;;;3.47;2.70;;;14.40;46.20;;;;;;5120862;28;20023;-66
2022/03/23 05:03:07;;;;;;;2.42;2.10;;;14.40;46.00;;;;;;5120836;28;20035;-67
2022/03/23 05:05:33;;;;;;;5.88;2.70;;;14.40;46.00;;;;;;5120771;28;20330;-67
2022/03/23 05:07:59;;;;;;;3.65;2.85;;;14.30;46.10;;;;;;5120793;28;20095;-67
2022/03/23 05:10:24;;;;;;;3.28;2.50;;;14.30;46.20;;;;;;5120483;28;20090;-67
2022/03/23 05:12:51;;;;;;;3.33;2.75;;;14.40;46.20;;;;;;5120652;28;20062;-66
2022/03/23 05:15:18;;;;;;;2.90;2.60;;;14.30;46.00;;;;;;5120547;27;20026;-67
2022/03/23 05:17:45;;;;;;;2.72;2.38;;;14.30;46.20;;;;;;5120477;28;20029;-67
2022/03/23 05:20:13;;;;;;;3.42;2.55;;;14.30;46.10;;;;;;5120473;28;20263;-68
2022/03/23 05:22:39;;;;;;;3.13;2.47;;;14.30;46.20;;;;;;5120531;28;20057;-66
2022/03/23 05:25:06;;;;;;;2.70;2.28;;;14.30;46.20;;;;;;5120283;28;20091;-66
2022/03/23 05:27:36;;;;;;;3.25;2.70;;;14.30;46.90;;;;;;5120318;28;20039;-66
2022/03/23 05:30:04;;;;;;;2.88;2.50;;;14.30;46.20;;;;;;5120262;28;20027;-68
2022/03/23 05:32:30;;;;;;;3.10;2.80;;;14.30;46.20;;;;;;5120348;28;20024;-66
2022/03/23 05:34:56;;;;;;;3.13;2.50;;;14.30;46.00;;;;;;5120222;28;20458;-68
2022/03/23 05:37:22;;;;;;;4.30;3.15;;;14.40;45.90;;;;;;5120188;28;20023;-67
2022/03/23 05:39:48;;;;;;;2.72;2.40;;;14.30;46.00;;;;;;5120134;28;20019;-68
2022/03/23 05:42:14;;;;;;;3.40;3.00;;;14.30;46.30;;;;;;5120102;28;20023;-66
2022/03/23 05:44:40;;;;;;;2.88;2.55;;;14.30;46.30;;;;;;5120168;28;20247;-67
2022/03/23 05:47:06;;;;;;;3.20;2.58;;;14.20;46.00;;;;;;5119898;28;20114;-66
2022/03/23 05:49:32;;;;;;;3.47;2.42;;;14.30;46.10;;;;;;5119935;28;20032;-66
2022/03/23 05:51:58;;;;;;;2.60;2.35;;;14.30;46.00;;;;;;5119986;28;20083;-67
2022/03/23 05:54:24;;;;;;;4.65;2.50;;;14.30;46.10;;;;;;5119930;28;20073;-65
2022/03/23 05:56:50;;;;;;;4.35;2.72;;;14.20;46.10;;;;;;5120010;28;20031;-66
2022/03/23 05:59:17;;;;;;;4.65;3.00;;;14.30;46.00;;;;;;5119835;28;20020;-67
2022/03/23 06:01:42;;;;;;;3.05;2.35;;;14.40;46.10;;;;;;5119848;28;20307;-67
2022/03/23 06:04:08;;;;;;;3.67;2.88;;;14.30;46.10;;;;;;5119804;28;20027;-66
2022/03/23 06:06:34;;;;;;;4.25;2.65;;;14.40;45.90;;;;;;5119788;28;20031;-66
2022/03/23 06:09:00;;;;;;;3.83;2.97;;;14.30;45.80;;;;;;5118426;28;20228;-66
2022/03/23 06:11:26;;;;;;;4.28;3.08;;;14.30;46.00;;;;;;5119763;28;20036;-67
2022/03/23 06:13:52;;;;;;;3.70;2.83;;;14.30;46.20;;;;;;5119748;28;20030;-66
2022/03/23 06:16:18;;;;;;;3.03;2.60;;;14.30;46.10;;;;;;5119732;28;20035;-67
2022/03/23 06:18:44;;;;;;;3.30;2.92;;;14.20;46.00;;;;;;5119611;28;20211;-67
2022/03/23 06:21:10;;;;;;;3.40;2.70;;;14.20;46.00;;;;;;5119782;28;20031;-67
2022/03/23 06:23:35;;;;;;;3.03;2.45;;;14.30;46.60;;;;;;5119623;28;20189;-66
2022/03/23 06:26:03;;;;;;;3.60;2.70;;;14.30;46.00;;;;;;5119586;28;20030;-67
2022/03/23 06:28:29;;;;;;;2.85;2.30;;;14.30;46.00;;;;;;5119648;28;20032;-67
2022/03/23 06:30:54;;;;;;;2.75;2.45;;;14.30;46.00;;;;;;5119480;28;20027;-66
2022/03/23 06:33:20;;;;;;;2.95;2.50;;;14.30;46.00;;;;;;5119518;28;20031;-66
2022/03/23 06:35:47;;;;;;;3.70;2.92;;;14.30;45.90;;;;;;5119513;28;20023;-66
2022/03/23 06:38:15;;;;;;;3.38;2.60;;;14.40;46.10;;;;;;5122871;28;20023;-67
2022/03/23 06:40:41;;;;;;;4.10;2.88;;;14.30;46.00;;;;;;5123633;28;20026;-67
2022/03/23 06:43:07;;;;;;;3.83;2.75;;;14.20;46.10;;;;;;5123481;28;20379;-67
2022/03/23 06:45:33;;;;;;;3.33;2.50;;;14.30;46.20;;;;;;5123469;28;20019;-66
2022/03/23 06:47:59;;;;;;;3.25;2.60;;;14.30;46.20;;;;;;5123269;28;20062;-66
2022/03/23 06:50:25;;;;;;;2.70;2.50;;;14.30;46.10;;;;;;5121917;28;20034;-66
2022/03/23 06:52:51;;;;;;;4.28;3.20;;;14.40;46.10;;;;;;5123240;28;20024;-66
2022/03/23 06:55:17;;;;;;;3.60;2.65;;;14.40;45.90;;;;;;5123251;28;20347;-66
2022/03/23 06:57:42;;;;;;;3.33;2.50;;;14.40;45.90;;;;;;5123204;28;20016;-67
2022/03/23 07:00:15;;;;;;;3.25;2.42;;;14.40;45.90;;;;;;5123240;28;20038;-67
2022/03/23 07:02:48;;;;;;;3.10;2.38;;;14.40;45.90;;;;;;5123207;28;20268;-66
2022/03/23 07:05:16;;;;;;;3.30;2.70;;;14.40;45.80;;;;;;5123026;28;20087;-66
2022/03/23 07:10:27;;;;;;;3.65;2.40;;;14.50;45.80;;;;;;5122963;28;20390;-67
2022/03/23 07:12:54;;;;;;;3.30;2.50;;;14.40;45.70;;;;;;5122925;28;20059;-67
2022/03/23 07:15:19;;;;;;;3.30;2.25;;;14.40;45.80;;;;;;5122926;28;20089;-66
2022/03/23 07:17:45;;;;;;;2.65;2.38;;;14.40;45.70;;;;;;5122805;28;20024;-66
2022/03/23 07:20:11;;;;;;;4.47;2.40;;;14.50;45.80;;;;;;5122750;28;20312;-67
2022/03/23 07:22:37;;;;;;;3.17;2.72;;;14.50;45.70;;;;;;5122771;28;20079;-67
2022/03/23 07:25:06;;;;;;;3.70;2.70;;;14.50;45.70;;;;;;5122700;28;20015;-67
2022/03/23 07:27:32;;;;;;;2.80;2.55;;;14.50;45.60;;;;;;5122598;28;20031;-67
2022/03/23 07:29:58;;;;;;;3.13;2.60;;;14.50;45.60;;;;;;5122499;28;20019;-66
2022/03/23 07:32:23;;;;;;;3.72;2.47;;;14.50;45.60;;;;;;5122540;28;20031;-66
2022/03/23 07:34:49;;;;;;;3.10;2.70;;;14.50;45.70;;;;;;5122582;28;20291;-67
2022/03/23 07:37:15;;;;;;;3.13;2.75;;;14.50;45.70;;;;;;5122377;28;20039;-66
2022/03/23 07:39:41;;;;;;;3.65;2.63;;;14.50;45.70;;;;;;5122474;27;20203;-69
2022/03/23 07:42:07;;;;;;;3.90;2.40;;;14.50;45.60;;;;;;5122361;28;20054;-67
2022/03/23 07:44:33;;;;;;;2.85;2.28;;;14.50;45.60;;;;;;5122301;28;20350;-67
2022/03/23 07:46:59;;;;;;;3.00;2.70;;;14.50;45.70;;;;;;5122189;28;20343;-67
2022/03/23 07:49:25;;;;;;;3.22;2.60;;;14.50;45.60;;;;;;5121212;27;20024;-67
2022/03/23 07:51:51;;;;;;;3.28;2.88;;;14.50;45.70;;;;;;5122207;28;20007;-67
2022/03/23 07:54:17;;;;;;;3.30;2.72;;;14.50;45.60;;;;;;5122036;28;20079;-66
2022/03/23 07:56:43;;;;;;;2.67;2.40;;;14.50;45.60;;;;;;5122123;28;20016;-66
2022/03/23 07:59:09;;;;;;;2.83;2.35;;;14.50;45.60;;;;;;5122090;28;20026;-66
2022/03/23 08:01:34;;;;;;;2.65;2.35;;;14.50;45.60;;;;;;5121958;28;20375;-66
2022/03/23 08:04:01;;;;;;;3.17;2.75;;;14.50;45.60;;;;;;5121904;28;20027;-67
2022/03/23 08:06:28;;;;;;;3.50;2.60;;;14.50;45.60;;;;;;5121936;28;20027;-67
2022/03/23 08:08:54;;;;;;;3.25;2.67;;;14.50;45.70;;;;;;5121778;28;20517;-67
2022/03/23 08:11:20;;;;;;;3.55;2.38;;;14.50;45.70;;;;;;5121778;28;20094;-66
2022/03/23 08:13:45;;;;;;;3.03;2.58;;;14.50;45.70;;;;;;5121815;28;20019;-66
2022/03/23 08:16:15;;;;;;;3.33;2.60;;;14.50;45.70;;;;;;5122076;28;20032;-68
2022/03/23 08:18:40;;;;;;;4.35;2.67;;;14.50;45.80;;;;;;5121743;28;20031;-66
2022/03/23 08:21:06;;;;;;;3.30;2.53;;;14.50;45.70;;;;;;5121657;28;20116;-66
2022/03/23 08:23:32;;;;;;;3.72;2.60;;;14.50;45.80;;;;;;5121512;28;20031;-67
2022/03/23 08:25:58;;;;;;;2.90;2.60;;;14.50;45.80;;;;;;5121576;28;20023;-66
2022/03/23 08:28:24;;;;;;;3.33;2.45;;;14.50;45.80;;;;;;5121504;28;20353;-65
2022/03/23 08:30:50;;;;;;;3.55;2.63;;;14.50;45.80;;;;;;5121455;28;20240;-67
2022/03/23 08:33:15;;;;;;;3.25;2.45;;;14.50;45.80;;;;;;5121349;28;20070;-66
2022/03/23 08:35:41;;;;;;;3.25;2.42;;;14.50;45.80;;;;;;5121347;28;20035;-67
2022/03/23 08:38:07;;;;;;;3.40;2.53;;;14.50;45.90;;;;;;5121275;27;20316;-67
2022/03/23 08:40:34;;;;;;;3.08;2.35;;;14.50;45.90;;;;;;5121214;28;20023;-66
2022/03/23 08:43:01;;;;;;;2.50;2.30;;;14.50;45.90;;;;;;5119831;28;20265;-66
2022/03/23 08:45:28;;;;;;;3.13;2.40;;;14.50;46.00;;;;;;5121154;28;20231;-66
2022/03/23 08:47:54;;;;;;;2.63;2.40;;;14.40;45.90;;;;;;5120880;28;20289;-66
2022/03/23 08:50:20;;;;;;;3.00;2.58;;;14.50;45.90;;;;;;5121061;28;20027;-66
2022/03/23 08:52:46;;;;;;;2.55;2.10;;;14.50;45.90;;;;;;5120998;28;20015;-66
2022/03/23 08:55:14;;;;;;;2.40;1.92;;;14.50;45.90;;;;;;5121120;28;20344;-67
2022/03/23 08:57:41;;;;;;;3.57;2.83;;;14.50;45.80;;;;;;5121054;28;20019;-66
2022/03/23 09:00:08;;;;;;;2.88;2.40;;;14.50;46.50;;;;;;5120630;28;20023;-67
2022/03/23 09:02:34;;;;;;;3.03;2.67;;;14.60;45.90;;;;;;5119537;28;20054;-67
2022/03/23 09:04:59;;;;;;;3.10;2.20;;;14.50;46.00;;;;;;5120787;28;20251;-66
2022/03/23 09:07:25;;;;;;;2.78;2.33;;;14.50;46.00;;;;;;5120718;28;20031;-67
2022/03/23 09:09:51;;;;;;;2.30;2.10;;;14.60;46.00;;;;;;5120570;28;20364;-68
2022/03/23 09:12:16;;;;;;;2.60;2.40;;;14.60;45.90;;;;;;5120630;28;20091;-67
2022/03/23 09:14:43;;;;;;;2.97;2.47;;;14.60;46.00;;;;;;5120559;28;20019;-66
2022/03/23 09:17:08;;;;;;;2.50;2.30;;;14.50;45.90;;;;;;5120580;28;20038;-68
2022/03/23 09:19:34;;;;;;;3.78;2.40;;;14.50;46.00;;;;;;5120532;28;20051;-67
2022/03/23 09:22:02;;;;;;;2.65;2.38;;;14.50;46.00;;;;;;5120495;28;20039;-65
2022/03/23 09:24:28;;;;;;;2.20;2.00;;;14.60;46.10;;;;;;5119143;28;20028;-67
2022/03/23 09:26:55;;;;;;;2.83;2.42;;;14.50;46.00;;;;;;5120357;28;20038;-67
2022/03/23 09:29:22;;;;;;;2.80;2.30;;;14.50;46.00;;;;;;5120296;28;20024;-67
2022/03/23 09:31:48;;;;;;;3.00;2.42;;;14.60;46.10;;;;;;5120337;28;20012;-67
2022/03/23 09:34:13;;;;;;;2.45;2.17;;;14.60;46.10;;;;;;5120246;28;20023;-67
2022/03/23 09:39:25;;;;;;;4.47;2.85;;;14.60;46.10;;;;;;5120182;28;20030;-67
2022/03/23 09:41:53;;;;;;;3.53;2.25;;;14.60;46.10;;;;;;5120145;28;20263;-66
2022/03/23 09:44:20;;;;;;;2.25;2.05;;;14.60;46.20;;;;;;5120235;28;20027;-67
2022/03/23 09:46:56;;;;;;;3.85;2.40;;;14.60;46.20;;;;;;5119965;28;20086;-67
2022/03/23 09:49:23;;;;;;;2.47;2.20;;;14.60;46.20;;;;;;5120020;28;20024;-66
2022/03/23 09:51:53;;;;;;;2.92;2.40;;;14.60;46.20;;;;;;5118763;28;20026;-67
2022/03/23 09:54:22;;;;;;;2.90;2.28;;;14.60;46.20;;;;;;5120037;28;20019;-66
2022/03/23 09:56:48;;;;;;;;;;;14.60;46.20;;;;;;5120418;28;20011;-67
2022/03/23 09:59:14;;;;;;;3.25;2.40;;;14.60;46.20;;;;;;5118601;28;19907;-66
2022/03/23 10:02:02;;;;;;;2.83;2.30;;;14.60;46.20;;;;;;5119953;28;20096;-67
2022/03/23 10:04:49;;;;;;;2.38;2.17;;;14.70;46.20;;;;;;5119832;28;20027;-67
2022/03/23 10:07:26;;;;;;;3.30;2.60;;;14.70;46.30;;;;;;5119738;28;20224;-67
2022/03/23 10:10:17;;;;;;;4.00;2.38;;;14.70;46.30;;;;;;5119797;28;20050;-66
2022/03/23 10:13:21;;;;;;;2.67;2.20;;;14.70;46.30;;;;;;5119099;28;20024;-66
2022/03/23 10:16:28;;;;;;;2.25;2.00;;;14.70;46.30;;;;;;5119791;28;20020;-66
2022/03/23 10:18:56;;;;;;;2.15;1.95;;;14.70;46.30;;;;;;5098360;28;20035;-66
2022/03/23 10:21:35;;;;;;;2.67;2.38;;;14.70;46.30;;;;;;5119711;28;20023;-67
2022/03/23 10:24:01;;;;;;;2.55;2.10;;;14.70;46.30;;;;;;5119720;28;20338;-67
2022/03/23 10:26:28;;;;;;;2.45;2.00;;;14.70;46.40;;;;;;5118310;28;20103;-67
2022/03/23 10:28:55;;;;;;;2.40;2.20;;;14.70;46.30;;;;;;5119549;28;20030;-66
2022/03/23 10:31:23;;;;;;;2.95;2.40;;;14.70;46.30;;;;;;5119577;28;20191;-67
2022/03/23 10:34:10;;;;;;;2.35;2.15;;;14.70;46.30;;;;;;5119627;28;20028;-67
2022/03/23 10:36:38;;;;;;;3.03;2.47;;;14.70;46.30;;;;;;5119496;28;20050;-67
2022/03/23 10:39:07;;;;;;;2.92;2.38;;;14.70;46.40;;;;;;5119484;28;20102;-66
2022/03/23 10:41:33;;;;;;;2.72;2.35;;;14.80;46.40;;;;;;5118221;28;20090;-66
2022/03/23 10:43:59;;;;;;;2.72;2.30;;;14.70;46.40;;;;;;5119544;28;20015;-66
2022/03/23 10:46:25;;;;;;;2.67;2.35;;;14.80;46.40;;;;;;5119238;28;20048;-67
2022/03/23 10:49:01;;;;;;;3.22;2.55;;;14.80;46.40;;;;;;5119480;28;20019;-67
2022/03/23 10:51:31;;;;;;;3.15;2.78;;;14.80;46.50;;;;;;5119397;28;20030;-67
2022/03/23 10:53:57;;;;;;;3.33;2.10;;;14.80;46.40;;;;;;5119701;28;20022;-68
2022/03/23 10:56:37;;;;;;;2.78;2.10;;;14.80;46.40;;;;;;5119422;28;20095;-69
2022/03/23 10:59:22;;;;;;;3.00;2.22;;;14.80;46.50;;;;;;5119418;28;20028;-67
2022/03/23 11:02:00;;;;;;;2.72;2.30;;;14.80;46.40;;;;;;5119413;28;20016;-69
2022/03/23 11:04:45;;;;;;;3.20;2.53;;;14.80;46.40;;;;;;5117902;28;20033;-67
2022/03/23 11:07:30;;;;;;;2.75;2.33;;;14.80;46.40;;;;;;5119345;28;20008;-67
2022/03/23 11:15:46;;;;;;;3.85;2.70;;;14.80;46.40;;;;;;5119243;28;20023;-67
2022/03/23 11:18:17;;;;;;;2.53;2.28;;;14.80;46.40;;;;;;5119258;28;20020;-66
2022/03/23 11:20:44;;;;;;;2.80;2.50;;;14.90;46.60;;;;;;5117853;28;20072;-67
2022/03/23 11:23:26;;;;;;;3.22;2.35;;;14.90;46.50;;;;;;5120642;28;20055;-67
2022/03/23 11:25:57;;;;;;;2.50;2.20;;;14.90;46.50;;;;;;5122846;28;20081;-68
2022/03/23 11:28:23;;;;;;;3.42;2.33;;;14.90;47.10;;;;;;5122650;27;20327;-68
2022/03/23 11:30:50;;;;;;;2.92;2.35;;;14.90;46.50;;;;;;5122713;28;20027;-66
2022/03/23 11:33:18;;;;;;;2.10;1.90;;;14.90;46.50;;;;;;5122670;28;20090;-68
2022/03/23 11:35:48;;;;;;;2.03;1.83;;;14.90;46.50;;;;;;5122567;28;20063;-66
2022/03/23 11:38:26;;;;;;;2.65;2.30;;;14.90;46.50;;;;;;5122490;28;20073;-66
2022/03/23 11:40:53;;;;;;;2.45;2.20;;;14.90;46.50;;;;;;5122497;28;20026;-67
2022/03/23 11:43:21;;;;;;;2.30;2.10;;;14.90;46.50;;;;;;5122332;27;20032;-65
2022/03/23 11:45:49;;;;;;;2.58;2.28;;;14.90;46.60;;;;;;5122445;28;20024;-66
2022/03/23 11:48:49;;;;;;;3.00;2.45;;;14.90;46.60;;;;;;5122189;28;20059;-66
2022/03/23 11:51:24;;;;;;;2.20;2.00;;;15.00;46.60;;;;;;5122243;28;20023;-66
2022/03/23 11:54:11;;;;;;;3.13;2.20;;;15.00;46.60;;;;;;5122310;28;20327;-67
2022/03/23 11:56:53;;;;;;;2.63;2.20;;;15.00;46.60;;;;;;5122191;28;20059;-67
2022/03/23 11:59:29;;;;;;;4.13;2.45;;;15.00;46.60;;;;;;5122199;28;20047;-67
2022/03/23 12:01:56;;;;;;;2.83;2.22;;;15.00;46.60;;;;;;5122056;28;20050;-67
2022/03/23 12:04:28;;;;;;;2.80;2.20;;;15.00;46.60;;;;;;5121054;28;20027;-68
2022/03/23 12:07:03;;;;;;;2.70;2.05;;;15.00;46.60;;;;;;5121886;28;20315;-66
2022/03/23 12:09:48;;;;;;;2.60;2.40;;;15.00;46.40;;;;;;5121922;28;20031;-67
2022/03/23 12:12:33;;;;;;;2.90;2.25;;;15.00;46.60;;;;;;5121859;28;20068;-68
2022/03/23 12:15:25;;;;;;;3.20;2.30;;;15.00;46.60;;;;;;5120603;28;20111;-66
2022/03/23 12:17:54;;;;;;;2.08;1.88;;;15.00;46.60;;;;;;5121766;28;20012;-67
2022/03/23 12:20:41;;;;;;;2.42;2.03;;;15.10;46.60;;;;;;5120407;28;20113;-67
2022/03/23 12:23:34;;;;;;;2.35;2.15;;;15.00;46.60;;;;;;5121689;28;20024;-66
2022/03/23 12:26:40;;;;;;;2.67;2.17;;;15.10;46.70;;;;;;5121627;28;20046;-66
2022/03/23 12:29:29;;;;;;;2.60;2.25;;;15.10;46.70;;;;;;5058417;28;20033;-66
2022/03/23 12:32:08;;;;;;;2.85;2.47;;;15.10;46.70;;;;;;5118757;28;20311;-67
2022/03/23 12:34:42;;;;;;;3.05;2.03;;;15.10;46.70;;;;;;5119363;28;20123;-67
2022/03/23 12:37:11;;;;;;;2.90;2.58;;;15.10;46.60;;;;;;5121440;28;20016;-67
2022/03/23 12:39:44;;;;;;;;;;;15.20;46.70;;;;;;5121809;28;20373;-66
2022/03/23 12:42:15;;;;;;;2.45;2.17;;;15.10;46.70;;;;;;5121419;28;19915;-66
2022/03/23 12:44:45;;;;;;;3.15;2.28;;;15.10;46.70;;;;;;5121197;27;20323;-66
2022/03/23 12:47:14;;;;;;;2.00;1.77;;;15.10;47.30;;;;;;5120927;28;20622;-66
2022/03/23 12:58:12;;;;;;;3.00;2.33;;;15.20;46.70;;;;;;5121027;28;20026;-66
2022/03/23 13:00:42;;;;;;;3.05;1.98;;;15.20;46.80;;;;;;5120965;28;20025;-66
2022/03/23 13:03:07;;;;;;;2.05;1.90;;;15.20;46.70;;;;;;5121185;28;20012;-66
2022/03/23 13:05:34;;;;;;;2.55;2.33;;;15.20;46.70;;;;;;5120772;28;20421;-67
2022/03/23 13:08:01;;;;;;;2.65;2.10;;;15.20;46.70;;;;;;5120822;28;20228;-65
2022/03/23 13:10:27;;;;;;;2.58;2.03;;;15.20;46.70;;;;;;5120626;28;20094;-67
2022/03/23 13:13:08;;;;;;;2.08;1.88;;;15.20;46.60;;;;;;5120719;27;20298;-67
2022/03/23 13:15:34;;;;;;;2.78;2.20;;;15.30;46.80;;;;;;5120584;28;20084;-67
2022/03/23 13:18:00;;;;;;;2.08;1.55;;;15.30;46.70;;;;;;5120614;28;20024;-67
2022/03/23 13:20:28;;;;;;;3.10;2.20;;;15.30;46.70;;;;;;5119236;28;20026;-66
2022/03/23 13:22:55;;;;;;;2.78;2.00;;;15.30;46.70;;;;;;5120472;28;20027;-67
2022/03/23 13:25:20;;;;;;;2.33;2.10;;;15.30;46.70;;;;;;5120462;28;20020;-66